createdAt,value
2023-03-22T00:00:00.442Z,7.55
2023-03-22T00:02:27.606Z,7.10
2023-03-22T00:04:54.700Z,8.23
2023-03-22T00:07:21.852Z,7.75
2023-03-22T00:09:48.816Z,7.63
2023-03-22T00:12:15.826Z,8.00
2023-03-22T00:14:43.031Z,6.45
2023-03-22T00:17:10.112Z,6.63
2023-03-22T00:19:37.539Z,6.57
2023-03-22T00:22:06.414Z,8.15
2023-03-22T00:24:33.484Z,7.43
2023-03-22T00:27:01.137Z,6.97
2023-03-22T00:29:28.334Z,6.93
2023-03-22T00:31:56.410Z,6.90
2023-03-22T00:34:23.624Z,7.40
2023-03-22T00:36:52.035Z,7.35
2023-03-22T00:39:20.042Z,6.28
2023-03-22T00:41:47.878Z,7.10
2023-03-22T00:44:14.833Z,7.85
2023-03-22T00:46:41.757Z,6.28
2023-03-22T00:49:08.994Z,6.70
2023-03-22T00:51:36.068Z,6.50
2023-03-22T00:54:03.137Z,6.28
2023-03-22T00:56:30.204Z,7.10
2023-03-22T00:59:04.616Z,7.20
2023-03-22T01:01:31.722Z,7.75
2023-03-22T01:03:58.988Z,7.07
2023-03-22T01:06:26.002Z,7.32
2023-03-22T01:08:55.341Z,5.88
2023-03-22T01:11:22.310Z,6.93
2023-03-22T01:13:50.524Z,7.07
2023-03-22T01:16:18.528Z,8.00
2023-03-22T01:18:45.604Z,7.88
2023-03-22T01:21:13.132Z,7.18
2023-03-22T01:23:40.670Z,7.22
2023-03-22T01:26:07.896Z,7.63
2023-03-22T01:28:34.906Z,8.00
2023-03-22T01:31:02.935Z,6.72
2023-03-22T01:33:30.713Z,7.40
2023-03-22T01:35:58.277Z,7.82
2023-03-22T01:38:25.827Z,6.95
2023-03-22T01:40:59.082Z,7.70
2023-03-22T01:43:28.479Z,7.78
2023-03-22T01:45:57.695Z,6.40
2023-03-22T01:48:46.319Z,6.38
2023-03-22T01:51:25.398Z,6.85
2023-03-22T01:54:13.740Z,6.80
2023-03-22T01:56:42.076Z,6.93
2023-03-22T01:59:15.818Z,7.13
2023-03-22T02:02:10.980Z,6.10
2023-03-22T02:04:39.427Z,6.80
2023-03-22T02:07:15.691Z,6.18
2023-03-22T02:09:46.714Z,7.13
2023-03-22T02:12:32.941Z,5.95
2023-03-22T02:15:09.082Z,6.97
2023-03-22T02:18:41.762Z,6.68
2023-03-22T02:21:21.667Z,6.10
2023-03-22T02:23:58.197Z,6.53
2023-03-22T02:26:53.498Z,6.45
2023-03-22T02:30:04.626Z,6.20
2023-03-22T02:32:43.767Z,6.38
2023-03-22T02:35:26.065Z,6.30
2023-03-22T02:38:14.620Z,7.25
2023-03-22T02:40:58.605Z,6.00
2023-03-22T02:43:41.728Z,5.93
2023-03-22T02:46:27.506Z,7.22
2023-03-22T02:49:16.704Z,5.28
2023-03-22T02:52:01.610Z,6.65
2023-03-22T02:54:44.685Z,6.53
2023-03-22T02:57:29.796Z,6.78
2023-03-22T02:59:58.560Z,7.15
2023-03-22T03:02:28.281Z,6.13
2023-03-22T03:04:57.153Z,6.78
2023-03-22T03:07:28.155Z,6.50
2023-03-22T03:09:55.669Z,6.30
2023-03-22T03:12:26.077Z,6.57
2023-03-22T03:14:55.341Z,6.85
2023-03-22T03:17:42.006Z,6.53
2023-03-22T03:20:30.383Z,5.47
2023-03-22T03:23:22.663Z,5.55
2023-03-22T03:26:12.425Z,4.93
2023-03-22T03:28:49.945Z,5.72
2023-03-22T03:31:46.636Z,5.28
2023-03-22T03:34:24.696Z,5.63
2023-03-22T03:37:00.317Z,5.45
2023-03-22T03:39:32.450Z,5.20
2023-03-22T03:42:02.670Z,5.13
2023-03-22T03:44:31.492Z,5.25
2023-03-22T03:46:59.857Z,5.43
2023-03-22T03:49:27.383Z,5.25
2023-03-22T03:51:56.230Z,4.68
2023-03-22T03:54:24.066Z,5.60
2023-03-22T03:56:51.078Z,5.10
2023-03-22T03:59:19.115Z,4.95
2023-03-22T04:01:52.542Z,4.10
2023-03-22T04:04:30.045Z,3.70
2023-03-22T04:07:05.743Z,3.42
2023-03-22T04:09:37.510Z,3.33
2023-03-22T04:12:16.532Z,3.38
2023-03-22T04:14:52.395Z,3.50
2023-03-22T04:17:24.560Z,3.78
2023-03-22T04:19:53.723Z,3.55
2023-03-22T04:22:20.995Z,3.30
2023-03-22T04:24:50.288Z,3.35
2023-03-22T04:27:22.391Z,3.70
2023-03-22T04:29:56.163Z,3.58
2023-03-22T04:32:43.292Z,3.53
2023-03-22T04:35:11.493Z,3.83
2023-03-22T04:37:38.484Z,3.20
2023-03-22T04:40:20.951Z,3.97
2023-03-22T04:43:04.222Z,4.78
2023-03-22T04:45:47.459Z,4.25
2023-03-22T04:48:22.292Z,5.03
2023-03-22T04:50:53.468Z,4.60
2023-03-22T04:53:27.492Z,5.65
2023-03-22T04:55:59.115Z,5.50
2023-03-22T04:58:28.245Z,4.47
2023-03-22T05:00:55.300Z,3.90
2023-03-22T05:03:23.640Z,3.42
2023-03-22T05:05:53.514Z,3.72
2023-03-22T05:08:26.935Z,3.55
2023-03-22T05:10:59.152Z,4.10
2023-03-22T05:13:27.966Z,5.50
2023-03-22T05:15:55.461Z,5.50
2023-03-22T05:18:30.457Z,3.65
2023-03-22T05:20:59.773Z,3.00
2023-03-22T05:23:27.360Z,3.95
2023-03-22T05:25:58.387Z,3.58
2023-03-22T05:28:28.783Z,4.57
2023-03-22T05:31:17.236Z,4.35
2023-03-22T05:33:54.384Z,3.50
2023-03-22T05:36:24.213Z,3.70
2023-03-22T05:39:08.246Z,3.10
2023-03-22T05:41:36.762Z,3.20
2023-03-22T05:44:05.349Z,3.00
2023-03-22T05:46:33.730Z,3.08
2023-03-22T05:49:39.191Z,3.42
2023-03-22T05:52:07.717Z,3.35
2023-03-22T05:54:47.645Z,3.47
2023-03-22T05:57:14.694Z,3.72
2023-03-22T05:59:41.761Z,3.80
2023-03-22T06:02:11.931Z,2.88
2023-03-22T06:04:41.690Z,3.53
2023-03-22T06:07:14.344Z,3.85
2023-03-22T06:09:53.723Z,4.20
2023-03-22T06:12:28.883Z,3.92
2023-03-22T06:15:03.753Z,4.30
2023-03-22T06:17:33.717Z,4.10
2023-03-22T06:20:00.893Z,4.25
2023-03-22T06:22:30.624Z,4.15
2023-03-22T06:24:57.953Z,4.38
2023-03-22T06:27:34.804Z,4.55
2023-03-22T06:30:01.927Z,4.80
2023-03-22T06:32:33.398Z,4.55
2023-03-22T06:35:00.438Z,4.18
2023-03-22T06:37:27.436Z,4.82
2023-03-22T06:39:55.730Z,4.70
2023-03-22T06:42:26.177Z,5.88
2023-03-22T06:45:04.165Z,6.60
2023-03-22T06:47:34.140Z,5.93
2023-03-22T06:50:01.050Z,5.75
2023-03-22T06:52:47.466Z,6.05
2023-03-22T06:55:14.549Z,6.10
2023-03-22T06:57:42.069Z,5.28
2023-03-22T07:00:10.890Z,5.47
2023-03-22T07:02:38.034Z,5.25
2023-03-22T07:05:25.322Z,5.65
2023-03-22T07:07:52.327Z,5.05
2023-03-22T07:10:19.492Z,6.57
2023-03-22T07:12:47.289Z,6.10
2023-03-22T07:15:17.773Z,6.22
2023-03-22T07:18:08.626Z,5.28
2023-03-22T07:20:38.677Z,5.40
2023-03-22T07:23:06.922Z,4.95
2023-03-22T07:25:41.663Z,5.88
2023-03-22T07:28:30.909Z,4.93
2023-03-22T07:31:11.655Z,5.65
2023-03-22T07:33:59.417Z,4.65
2023-03-22T07:36:30.075Z,4.30
2023-03-22T07:38:57.288Z,3.63
2023-03-22T07:41:30.391Z,3.50
2023-03-22T07:44:18.187Z,2.90
2023-03-22T07:47:22.144Z,2.90
2023-03-22T07:50:14.409Z,2.88
2023-03-22T07:52:43.518Z,2.53
2023-03-22T07:55:13.435Z,2.33
2023-03-22T07:57:41.350Z,2.90
2023-03-22T08:00:10.596Z,2.75
2023-03-22T08:02:46.793Z,2.97
2023-03-22T08:05:30.542Z,2.70
2023-03-22T08:08:01.436Z,2.60
2023-03-22T08:10:28.546Z,2.85
2023-03-22T08:12:55.876Z,2.50
2023-03-22T08:15:26.206Z,2.90
2023-03-22T08:17:57.983Z,2.65
2023-03-22T08:20:35.585Z,2.55
2023-03-22T08:23:08.154Z,2.63
2023-03-22T08:26:04.939Z,2.47
2023-03-22T08:28:32.974Z,2.33
2023-03-22T08:31:00.008Z,2.42
2023-03-22T08:33:28.725Z,2.78
2023-03-22T08:36:12.242Z,2.40
2023-03-22T08:38:46.216Z,2.42
2023-03-22T08:41:16.303Z,2.40
2023-03-22T08:43:43.517Z,2.40
2023-03-22T08:46:10.961Z,2.53
2023-03-22T08:48:38.658Z,2.42
2023-03-22T08:51:22.633Z,2.47
2023-03-22T08:54:04.092Z,2.28
2023-03-22T08:56:50.431Z,1.98
2023-03-22T08:59:39.966Z,2.65
2023-03-22T09:02:25.155Z,2.28
2023-03-22T09:04:53.544Z,2.30
2023-03-22T09:07:20.983Z,2.20
2023-03-22T09:09:56.793Z,2.70
2023-03-22T09:12:26.296Z,2.40
2023-03-22T09:14:55.802Z,2.72
2023-03-22T09:17:25.326Z,2.58
2023-03-22T09:20:02.759Z,2.60
2023-03-22T09:22:37.399Z,2.72
2023-03-22T09:25:04.917Z,2.60
2023-03-22T09:27:32.995Z,2.10
2023-03-22T09:30:00.334Z,2.15
2023-03-22T09:32:27.425Z,1.95
2023-03-22T09:34:59.761Z,1.90
2023-03-22T09:37:37.387Z,2.05
2023-03-22T09:40:09.954Z,1.98
2023-03-22T09:42:40.949Z,2.00
2023-03-22T09:45:27.841Z,1.90
2023-03-22T09:47:56.643Z,2.00
2023-03-22T09:50:28.761Z,2.10
2023-03-22T09:52:56.294Z,2.40
2023-03-22T09:55:46.098Z,2.50
2023-03-22T09:58:30.753Z,2.50
2023-03-22T10:01:01.377Z,2.35
2023-03-22T10:03:35.901Z,2.50
2023-03-22T10:06:08.653Z,1.90
2023-03-22T10:09:06.929Z,2.00
2023-03-22T10:12:05.094Z,2.25
2023-03-22T10:14:45.521Z,2.10
2023-03-22T10:17:16.734Z,1.65
2023-03-22T10:19:58.803Z,2.10
2023-03-22T10:22:31.512Z,1.90
2023-03-22T10:25:01.490Z,2.30
2023-03-22T10:27:31.772Z,2.00
2023-03-22T10:30:08.700Z,2.25
2023-03-22T10:33:03.403Z,1.88
2023-03-22T10:35:31.943Z,2.00
2023-03-22T10:38:02.507Z,1.60
2023-03-22T10:40:33.961Z,1.75
2023-03-22T10:43:10.593Z,1.83
2023-03-22T10:45:38.222Z,2.10
2023-03-22T10:48:25.788Z,2.20
2023-03-22T10:53:20.672Z,2.00
2023-03-22T10:55:47.635Z,2.20
2023-03-22T10:58:20.900Z,2.10
2023-03-22T11:00:49.380Z,2.28
2023-03-22T11:03:37.452Z,2.30
2023-03-22T11:06:07.569Z,2.20
2023-03-22T11:08:53.963Z,2.40
2023-03-22T11:11:31.136Z,2.67
2023-03-22T11:16:30.653Z,3.25
2023-03-22T11:19:01.400Z,3.10
2023-03-22T11:21:32.328Z,3.10
2023-03-22T11:24:06.955Z,3.10
2023-03-22T11:26:40.532Z,2.25
2023-03-22T11:29:14.053Z,2.15
2023-03-22T11:31:57.411Z,1.95
2023-03-22T11:34:27.986Z,2.00
2023-03-22T11:36:57.181Z,2.00
2023-03-22T11:39:28.511Z,1.90
2023-03-22T11:42:06.484Z,2.05
2023-03-22T11:44:35.693Z,1.90
2023-03-22T11:47:04.620Z,2.10
2023-03-22T11:49:45.668Z,2.00
2023-03-22T11:52:18.080Z,2.10
2023-03-22T11:54:46.540Z,2.20
2023-03-22T11:57:23.427Z,2.05
2023-03-22T12:00:14.255Z,2.15
2023-03-22T12:03:00.744Z,2.28
2023-03-22T12:05:33.946Z,1.92
2023-03-22T12:08:00.869Z,1.85
2023-03-22T12:10:52.643Z,1.73
2023-03-22T12:13:25.748Z,2.05
2023-03-22T12:16:01.035Z,1.70
2023-03-22T12:18:39.682Z,2.05
2023-03-22T12:21:09.541Z,2.05
2023-03-22T12:23:37.117Z,1.80
2023-03-22T12:26:18.188Z,2.10
2023-03-22T12:29:04.207Z,2.13
2023-03-22T12:31:50.366Z,1.58
2023-03-22T12:34:25.927Z,2.28
2023-03-22T12:36:57.356Z,2.25
2023-03-22T12:39:27.107Z,2.00
2023-03-22T12:41:58.074Z,2.22
2023-03-22T12:44:31.933Z,1.92
2023-03-22T12:47:05.494Z,3.40
2023-03-22T12:49:49.070Z,2.50
2023-03-22T12:52:22.607Z,2.58
2023-03-22T12:54:52.194Z,2.40
2023-03-22T12:57:19.970Z,2.80
2023-03-22T12:59:51.700Z,2.83
2023-03-22T13:02:35.479Z,2.72
2023-03-22T13:05:06.839Z,2.72
2023-03-22T13:07:39.848Z,2.58
2023-03-22T13:10:40.484Z,2.70
2023-03-22T13:13:07.649Z,2.95
2023-03-22T13:15:42.248Z,2.92
2023-03-22T13:18:45.433Z,2.65
2023-03-22T13:21:19.601Z,3.08
2023-03-22T13:24:01.776Z,3.15
2023-03-22T13:26:53.114Z,3.15
2023-03-22T13:29:27.118Z,2.88
2023-03-22T13:32:03.664Z,2.78
2023-03-22T13:34:44.555Z,2.90
2023-03-22T13:37:30.329Z,2.88
2023-03-22T13:40:02.262Z,3.00
2023-03-22T13:42:38.898Z,2.80
2023-03-22T13:45:10.026Z,2.42
2023-03-22T13:47:47.077Z,2.45
2023-03-22T13:52:44.321Z,2.33
2023-03-22T13:55:34.249Z,2.78
2023-03-22T13:58:04.209Z,2.95
2023-03-22T14:00:31.496Z,3.00
2023-03-22T14:03:04.085Z,2.78
2023-03-22T14:05:36.597Z,2.40
2023-03-22T14:08:04.445Z,2.90
2023-03-22T14:10:44.449Z,2.90
2023-03-22T14:13:32.476Z,2.70
2023-03-22T14:16:08.652Z,2.53
2023-03-22T14:18:39.672Z,2.80
2023-03-22T14:21:19.338Z,2.22
